Terminal Aerodrome Forecast
Issued by NWS

Home | Current Version | Previous Version | Text Only | Print | Product List | Glossary On
Versions: 1 2 3 4 5 6 7 8 9 10 11 12
000
FTUS44 KOUN 101136
TAFPNC
TAF
KPNC 101136Z 1012/1112 14008KT P6SM BKN040
     FM101700 16014G20KT P6SM BKN050
     FM110000 17014G19KT P6SM SCT250=

USA.gov is the U.S. government's official web portal to all federal, state and local government web resources and services.